sensor_id;sensor_type;location;lat;lon;timestamp;temperature;humidity
16404;DHT22;8311;50.158;8.642;2024-02-14T00:02:17;20.70;47.80
16404;DHT22;8311;50.158;8.642;2024-02-14T00:05:11;20.70;47.90
16404;DHT22;8311;50.158;8.642;2024-02-14T00:08:09;20.70;47.90
16404;DHT22;8311;50.158;8.642;2024-02-14T00:11:02;20.70;47.90
16404;DHT22;8311;50.158;8.642;2024-02-14T00:13:55;20.70;47.80
16404;DHT22;8311;50.158;8.642;2024-02-14T00:16:48;20.70;47.90
16404;DHT22;8311;50.158;8.642;2024-02-14T00:19:42;20.70;47.90
16404;DHT22;8311;50.158;8.642;2024-02-14T00:22:35;20.70;48.50
16404;DHT22;8311;50.158;8.642;2024-02-14T00:25:30;20.70;47.80
16404;DHT22;8311;50.158;8.642;2024-02-14T00:28:23;20.80;47.90
16404;DHT22;8311;50.158;8.642;2024-02-14T00:31:19;20.70;47.90
16404;DHT22;8311;50.158;8.642;2024-02-14T00:34:12;20.70;47.90
16404;DHT22;8311;50.158;8.642;2024-02-14T00:37:05;20.70;47.90
16404;DHT22;8311;50.158;8.642;2024-02-14T00:39:58;20.70;47.90
16404;DHT22;8311;50.158;8.642;2024-02-14T00:42:53;20.80;48.00
16404;DHT22;8311;50.158;8.642;2024-02-14T00:45:46;20.70;47.90
16404;DHT22;8311;50.158;8.642;2024-02-14T00:48:40;20.70;47.90
16404;DHT22;8311;50.158;8.642;2024-02-14T00:51:33;20.70;47.90
16404;DHT22;8311;50.158;8.642;2024-02-14T00:54:29;20.80;47.90
16404;DHT22;8311;50.158;8.642;2024-02-14T00:57:22;20.80;48.00
16404;DHT22;8311;50.158;8.642;2024-02-14T01:00:18;20.70;48.00
16404;DHT22;8311;50.158;8.642;2024-02-14T01:03:11;20.70;48.00
16404;DHT22;8311;50.158;8.642;2024-02-14T01:06:07;20.70;48.00
16404;DHT22;8311;50.158;8.642;2024-02-14T01:09:01;20.70;48.00
16404;DHT22;8311;50.158;8.642;2024-02-14T01:11:55;20.70;48.00
16404;DHT22;8311;50.158;8.642;2024-02-14T01:14:49;20.80;48.20
16404;DHT22;8311;50.158;8.642;2024-02-14T01:17:43;20.70;48.10
16404;DHT22;8311;50.158;8.642;2024-02-14T01:20:39;20.70;48.00
16404;DHT22;8311;50.158;8.642;2024-02-14T01:23:32;20.70;48.00
16404;DHT22;8311;50.158;8.642;2024-02-14T01:26:25;20.70;48.00
16404;DHT22;8311;50.158;8.642;2024-02-14T01:29:19;20.70;48.00
16404;DHT22;8311;50.158;8.642;2024-02-14T01:32:12;20.70;48.00
16404;DHT22;8311;50.158;8.642;2024-02-14T01:35:07;20.70;48.10
16404;DHT22;8311;50.158;8.642;2024-02-14T01:38:02;20.70;48.10
16404;DHT22;8311;50.158;8.642;2024-02-14T01:40:55;20.70;48.70
16404;DHT22;8311;50.158;8.642;2024-02-14T01:43:50;20.70;48.10
16404;DHT22;8311;50.158;8.642;2024-02-14T01:46:44;20.70;48.10
16404;DHT22;8311;50.158;8.642;2024-02-14T01:49:37;20.70;48.10
16404;DHT22;8311;50.158;8.642;2024-02-14T01:52:32;20.70;48.10
16404;DHT22;8311;50.158;8.642;2024-02-14T01:55:28;20.70;48.10
16404;DHT22;8311;50.158;8.642;2024-02-14T01:58:21;20.70;48.10
16404;DHT22;8311;50.158;8.642;2024-02-14T02:01:15;20.70;48.10
16404;DHT22;8311;50.158;8.642;2024-02-14T02:04:09;20.80;48.20
16404;DHT22;8311;50.158;8.642;2024-02-14T02:07:03;20.70;48.10
16404;DHT22;8311;50.158;8.642;2024-02-14T02:09:58;20.70;48.10
16404;DHT22;8311;50.158;8.642;2024-02-14T02:12:58;20.70;48.20
16404;DHT22;8311;50.158;8.642;2024-02-14T02:15:51;20.70;48.20
16404;DHT22;8311;50.158;8.642;2024-02-14T02:18:45;20.70;48.20
16404;DHT22;8311;50.158;8.642;2024-02-14T02:21:38;20.70;48.20
16404;DHT22;8311;50.158;8.642;2024-02-14T02:24:32;20.70;48.20
16404;DHT22;8311;50.158;8.642;2024-02-14T02:27:25;20.70;48.20
16404;DHT22;8311;50.158;8.642;2024-02-14T02:30:27;20.70;48.20
16404;DHT22;8311;50.158;8.642;2024-02-14T02:33:19;20.70;48.20
16404;DHT22;8311;50.158;8.642;2024-02-14T02:36:13;20.70;48.20
16404;DHT22;8311;50.158;8.642;2024-02-14T02:39:09;20.70;48.20
16404;DHT22;8311;50.158;8.642;2024-02-14T02:42:01;20.70;48.20
16404;DHT22;8311;50.158;8.642;2024-02-14T02:44:55;20.70;48.20
16404;DHT22;8311;50.158;8.642;2024-02-14T02:47:50;20.70;48.20
16404;DHT22;8311;50.158;8.642;2024-02-14T02:50:45;20.70;48.20
16404;DHT22;8311;50.158;8.642;2024-02-14T02:53:42;20.70;48.10
16404;DHT22;8311;50.158;8.642;2024-02-14T02:56:35;20.70;48.10
16404;DHT22;8311;50.158;8.642;2024-02-14T02:59:29;20.70;48.20
16404;DHT22;8311;50.158;8.642;2024-02-14T03:02:22;20.70;48.20
16404;DHT22;8311;50.158;8.642;2024-02-14T03:05:18;20.70;48.20
16404;DHT22;8311;50.158;8.642;2024-02-14T03:08:15;20.70;48.20
16404;DHT22;8311;50.158;8.642;2024-02-14T03:11:09;20.70;48.20
16404;DHT22;8311;50.158;8.642;2024-02-14T03:14:02;20.70;48.20
16404;DHT22;8311;50.158;8.642;2024-02-14T03:16:54;20.70;48.30
16404;DHT22;8311;50.158;8.642;2024-02-14T03:19:48;20.70;48.20
16404;DHT22;8311;50.158;8.642;2024-02-14T03:22:45;20.70;48.30
16404;DHT22;8311;50.158;8.642;2024-02-14T03:25:39;20.70;48.30
16404;DHT22;8311;50.158;8.642;2024-02-14T03:28:33;20.70;48.20
16404;DHT22;8311;50.158;8.642;2024-02-14T03:31:27;20.70;48.20
16404;DHT22;8311;50.158;8.642;2024-02-14T03:34:20;20.70;48.20
16404;DHT22;8311;50.158;8.642;2024-02-14T03:37:14;20.70;48.20
16404;DHT22;8311;50.158;8.642;2024-02-14T03:40:09;20.70;48.30
16404;DHT22;8311;50.158;8.642;2024-02-14T03:43:04;20.70;48.30
16404;DHT22;8311;50.158;8.642;2024-02-14T03:45:56;20.70;48.30
16404;DHT22;8311;50.158;8.642;2024-02-14T03:48:50;20.70;48.30
16404;DHT22;8311;50.158;8.642;2024-02-14T03:51:43;20.70;48.30
16404;DHT22;8311;50.158;8.642;2024-02-14T03:54:38;20.70;48.30
16404;DHT22;8311;50.158;8.642;2024-02-14T03:57:33;20.70;48.30
16404;DHT22;8311;50.158;8.642;2024-02-14T04:00:30;20.70;48.30
16404;DHT22;8311;50.158;8.642;2024-02-14T04:03:25;20.70;48.30
16404;DHT22;8311;50.158;8.642;2024-02-14T04:06:21;20.70;49.00
16404;DHT22;8311;50.158;8.642;2024-02-14T04:09:13;20.70;48.30
16404;DHT22;8311;50.158;8.642;2024-02-14T04:12:08;20.70;48.30
16404;DHT22;8311;50.158;8.642;2024-02-14T04:15:05;20.70;48.40
16404;DHT22;8311;50.158;8.642;2024-02-14T04:18:00;20.70;48.50
16404;DHT22;8311;50.158;8.642;2024-02-14T04:20:58;20.70;48.60
16404;DHT22;8311;50.158;8.642;2024-02-14T04:23:51;20.70;48.80
16404;DHT22;8311;50.158;8.642;2024-02-14T04:26:45;20.60;48.80
16404;DHT22;8311;50.158;8.642;2024-02-14T04:29:40;20.60;49.00
16404;DHT22;8311;50.158;8.642;2024-02-14T04:32:34;20.60;49.10
16404;DHT22;8311;50.158;8.642;2024-02-14T04:35:27;20.60;49.20
16404;DHT22;8311;50.158;8.642;2024-02-14T04:38:21;20.60;49.40
16404;DHT22;8311;50.158;8.642;2024-02-14T04:41:13;20.60;49.50
16404;DHT22;8311;50.158;8.642;2024-02-14T04:44:07;20.50;49.60
16404;DHT22;8311;50.158;8.642;2024-02-14T04:46:59;20.50;49.80
16404;DHT22;8311;50.158;8.642;2024-02-14T04:49:55;20.50;50.00
16404;DHT22;8311;50.158;8.642;2024-02-14T04:52:49;20.50;50.00
16404;DHT22;8311;50.158;8.642;2024-02-14T04:55:42;20.50;50.30
16404;DHT22;8311;50.158;8.642;2024-02-14T04:58:35;20.50;50.40
16404;DHT22;8311;50.158;8.642;2024-02-14T05:01:28;20.50;51.00
16404;DHT22;8311;50.158;8.642;2024-02-14T05:04:21;20.50;50.90
16404;DHT22;8311;50.158;8.642;2024-02-14T05:07:17;20.50;50.80
16404;DHT22;8311;50.158;8.642;2024-02-14T05:10:10;20.50;51.30
16404;DHT22;8311;50.158;8.642;2024-02-14T05:13:04;20.50;52.10
16404;DHT22;8311;50.158;8.642;2024-02-14T05:15:58;20.50;50.90
16404;DHT22;8311;50.158;8.642;2024-02-14T05:18:52;20.50;50.80
16404;DHT22;8311;50.158;8.642;2024-02-14T05:21:45;20.40;50.90
16404;DHT22;8311;50.158;8.642;2024-02-14T05:24:41;20.50;51.00
16404;DHT22;8311;50.158;8.642;2024-02-14T05:27:35;20.40;51.00
16404;DHT22;8311;50.158;8.642;2024-02-14T05:30:29;20.40;51.00
16404;DHT22;8311;50.158;8.642;2024-02-14T05:33:24;20.40;51.10
16404;DHT22;8311;50.158;8.642;2024-02-14T05:36:17;20.40;51.10
16404;DHT22;8311;50.158;8.642;2024-02-14T05:39:11;20.40;51.20
16404;DHT22;8311;50.158;8.642;2024-02-14T05:42:08;20.40;51.20
16404;DHT22;8311;50.158;8.642;2024-02-14T05:45:02;20.40;51.30
16404;DHT22;8311;50.158;8.642;2024-02-14T05:47:56;20.40;51.40
16404;DHT22;8311;50.158;8.642;2024-02-14T05:50:49;20.40;51.40
16404;DHT22;8311;50.158;8.642;2024-02-14T05:53:43;20.40;51.50
16404;DHT22;8311;50.158;8.642;2024-02-14T05:56:36;20.40;51.50
16404;DHT22;8311;50.158;8.642;2024-02-14T05:59:32;20.40;51.60
16404;DHT22;8311;50.158;8.642;2024-02-14T06:02:26;20.40;51.60
16404;DHT22;8311;50.158;8.642;2024-02-14T06:05:20;20.40;51.70
16404;DHT22;8311;50.158;8.642;2024-02-14T06:08:12;20.40;51.80
16404;DHT22;8311;50.158;8.642;2024-02-14T06:11:06;20.40;51.80
16404;DHT22;8311;50.158;8.642;2024-02-14T06:14:00;20.40;51.80
16404;DHT22;8311;50.158;8.642;2024-02-14T06:16:56;20.40;51.90
16404;DHT22;8311;50.158;8.642;2024-02-14T06:19:48;20.40;51.80
16404;DHT22;8311;50.158;8.642;2024-02-14T06:22:42;20.40;52.00
16404;DHT22;8311;50.158;8.642;2024-02-14T06:25:47;20.30;51.90
16404;DHT22;8311;50.158;8.642;2024-02-14T06:28:42;20.30;51.90
16404;DHT22;8311;50.158;8.642;2024-02-14T06:31:35;20.40;51.90
16404;DHT22;8311;50.158;8.642;2024-02-14T06:34:29;20.30;52.00
16404;DHT22;8311;50.158;8.642;2024-02-14T06:37:23;20.40;52.20
16404;DHT22;8311;50.158;8.642;2024-02-14T06:40:16;20.30;52.30
16404;DHT22;8311;50.158;8.642;2024-02-14T06:43:11;20.30;52.40
16404;DHT22;8311;50.158;8.642;2024-02-14T06:46:05;20.30;52.40
16404;DHT22;8311;50.158;8.642;2024-02-14T06:48:59;20.30;52.50
16404;DHT22;8311;50.158;8.642;2024-02-14T06:51:54;20.30;52.50
16404;DHT22;8311;50.158;8.642;2024-02-14T06:54:49;20.30;52.60
16404;DHT22;8311;50.158;8.642;2024-02-14T06:57:41;20.30;52.60
16404;DHT22;8311;50.158;8.642;2024-02-14T07:00:35;20.30;52.60
16404;DHT22;8311;50.158;8.642;2024-02-14T07:03:27;20.30;52.60
16404;DHT22;8311;50.158;8.642;2024-02-14T07:06:22;20.30;52.70
16404;DHT22;8311;50.158;8.642;2024-02-14T07:09:16;20.30;52.70
16404;DHT22;8311;50.158;8.642;2024-02-14T07:12:10;20.30;52.70
16404;DHT22;8311;50.158;8.642;2024-02-14T07:15:03;20.30;52.70
16404;DHT22;8311;50.158;8.642;2024-02-14T07:17:56;20.30;52.80
16404;DHT22;8311;50.158;8.642;2024-02-14T07:20:50;20.30;53.30
16404;DHT22;8311;50.158;8.642;2024-02-14T07:23:45;20.30;53.30
16404;DHT22;8311;50.158;8.642;2024-02-14T07:26:40;20.30;53.60
16404;DHT22;8311;50.158;8.642;2024-02-14T07:29:37;20.30;53.50
16404;DHT22;8311;50.158;8.642;2024-02-14T07:32:31;20.30;53.20
16404;DHT22;8311;50.158;8.642;2024-02-14T07:35:24;20.30;53.70
16404;DHT22;8311;50.158;8.642;2024-02-14T07:38:18;20.30;53.50
16404;DHT22;8311;50.158;8.642;2024-02-14T07:41:11;20.30;53.60
16404;DHT22;8311;50.158;8.642;2024-02-14T07:44:06;20.30;54.70
16404;DHT22;8311;50.158;8.642;2024-02-14T07:47:01;20.30;54.10
16404;DHT22;8311;50.158;8.642;2024-02-14T07:49:57;20.30;54.20
16404;DHT22;8311;50.158;8.642;2024-02-14T07:52:52;20.30;54.40
16404;DHT22;8311;50.158;8.642;2024-02-14T07:55:45;20.30;54.00
16404;DHT22;8311;50.158;8.642;2024-02-14T07:58:39;20.30;54.20
16404;DHT22;8311;50.158;8.642;2024-02-14T08:01:34;20.30;54.10
16404;DHT22;8311;50.158;8.642;2024-02-14T08:04:27;20.30;54.10
16404;DHT22;8311;50.158;8.642;2024-02-14T08:07:21;20.30;54.20
16404;DHT22;8311;50.158;8.642;2024-02-14T08:10:14;20.30;54.30
16404;DHT22;8311;50.158;8.642;2024-02-14T08:13:07;20.30;54.30
16404;DHT22;8311;50.158;8.642;2024-02-14T08:16:00;20.30;54.50
16404;DHT22;8311;50.158;8.642;2024-02-14T08:18:55;20.30;54.60
16404;DHT22;8311;50.158;8.642;2024-02-14T08:21:52;20.30;54.40
16404;DHT22;8311;50.158;8.642;2024-02-14T08:24:48;20.30;55.30
16404;DHT22;8311;50.158;8.642;2024-02-14T08:27:42;20.30;54.80
16404;DHT22;8311;50.158;8.642;2024-02-14T08:30:35;20.30;54.80
16404;DHT22;8311;50.158;8.642;2024-02-14T08:33:30;20.30;54.70
16404;DHT22;8311;50.158;8.642;2024-02-14T08:36:24;20.30;55.30
16404;DHT22;8311;50.158;8.642;2024-02-14T08:39:18;20.30;54.80
16404;DHT22;8311;50.158;8.642;2024-02-14T08:42:13;20.30;54.80
16404;DHT22;8311;50.158;8.642;2024-02-14T08:45:07;20.30;54.80
16404;DHT22;8311;50.158;8.642;2024-02-14T08:48:03;20.30;54.90
16404;DHT22;8311;50.158;8.642;2024-02-14T08:50:56;20.30;54.90
16404;DHT22;8311;50.158;8.642;2024-02-14T08:53:52;20.30;54.90
16404;DHT22;8311;50.158;8.642;2024-02-14T08:56:47;20.30;55.70
16404;DHT22;8311;50.158;8.642;2024-02-14T08:59:41;20.30;56.40
16404;DHT22;8311;50.158;8.642;2024-02-14T09:02:39;20.30;56.70
16404;DHT22;8311;50.158;8.642;2024-02-14T09:05:33;20.30;56.80
16404;DHT22;8311;50.158;8.642;2024-02-14T09:08:27;20.30;57.00
16404;DHT22;8311;50.158;8.642;2024-02-14T09:11:21;20.20;56.90
16404;DHT22;8311;50.158;8.642;2024-02-14T09:14:15;20.30;56.00
16404;DHT22;8311;50.158;8.642;2024-02-14T09:17:09;20.30;53.30
16404;DHT22;8311;50.158;8.642;2024-02-14T09:20:03;20.40;53.20
16404;DHT22;8311;50.158;8.642;2024-02-14T09:22:59;20.40;52.90
16404;DHT22;8311;50.158;8.642;2024-02-14T09:25:52;20.40;48.40
16404;DHT22;8311;50.158;8.642;2024-02-14T09:28:49;20.10;48.30
16404;DHT22;8311;50.158;8.642;2024-02-14T09:31:43;20.10;46.90
16404;DHT22;8311;50.158;8.642;2024-02-14T09:34:39;20.00;46.50
16404;DHT22;8311;50.158;8.642;2024-02-14T09:37:32;20.00;47.00
16404;DHT22;8311;50.158;8.642;2024-02-14T09:40:25;20.10;47.40
16404;DHT22;8311;50.158;8.642;2024-02-14T09:43:37;20.10;47.70
16404;DHT22;8311;50.158;8.642;2024-02-14T09:46:35;20.20;48.10
16404;DHT22;8311;50.158;8.642;2024-02-14T09:49:29;20.20;48.30
16404;DHT22;8311;50.158;8.642;2024-02-14T09:52:23;20.20;48.50
16404;DHT22;8311;50.158;8.642;2024-02-14T09:55:17;20.30;48.90
16404;DHT22;8311;50.158;8.642;2024-02-14T09:58:11;20.30;49.10
16404;DHT22;8311;50.158;8.642;2024-02-14T10:01:07;20.30;49.30
16404;DHT22;8311;50.158;8.642;2024-02-14T10:04:01;20.30;49.40
16404;DHT22;8311;50.158;8.642;2024-02-14T10:06:56;20.30;49.50
16404;DHT22;8311;50.158;8.642;2024-02-14T10:09:49;20.30;49.60
16404;DHT22;8311;50.158;8.642;2024-02-14T10:12:43;20.30;49.70
16404;DHT22;8311;50.158;8.642;2024-02-14T10:15:37;20.30;49.80
16404;DHT22;8311;50.158;8.642;2024-02-14T10:18:31;20.40;49.90
16404;DHT22;8311;50.158;8.642;2024-02-14T10:21:26;20.40;50.10
16404;DHT22;8311;50.158;8.642;2024-02-14T10:24:21;20.40;50.20
16404;DHT22;8311;50.158;8.642;2024-02-14T10:27:15;20.40;50.30
16404;DHT22;8311;50.158;8.642;2024-02-14T10:30:09;20.40;51.10
16404;DHT22;8311;50.158;8.642;2024-02-14T10:33:03;20.40;51.60
16404;DHT22;8311;50.158;8.642;2024-02-14T10:36:12;20.40;51.90
16404;DHT22;8311;50.158;8.642;2024-02-14T10:39:09;20.40;52.00
16404;DHT22;8311;50.158;8.642;2024-02-14T10:42:04;20.30;52.20
16404;DHT22;8311;50.158;8.642;2024-02-14T10:44:58;20.30;52.40
16404;DHT22;8311;50.158;8.642;2024-02-14T10:47:51;20.40;51.40
16404;DHT22;8311;50.158;8.642;2024-02-14T10:50:47;20.30;52.40
16404;DHT22;8311;50.158;8.642;2024-02-14T10:53:44;20.30;52.80
16404;DHT22;8311;50.158;8.642;2024-02-14T10:56:41;20.30;52.90
16404;DHT22;8311;50.158;8.642;2024-02-14T10:59:35;20.30;53.00
16404;DHT22;8311;50.158;8.642;2024-02-14T11:02:32;20.30;53.10
16404;DHT22;8311;50.158;8.642;2024-02-14T11:05:25;20.30;53.30
16404;DHT22;8311;50.158;8.642;2024-02-14T11:08:19;20.30;53.50
16404;DHT22;8311;50.158;8.642;2024-02-14T11:11:13;20.30;53.20
16404;DHT22;8311;50.158;8.642;2024-02-14T11:14:07;20.30;52.60
16404;DHT22;8311;50.158;8.642;2024-02-14T11:17:00;20.30;53.20
16404;DHT22;8311;50.158;8.642;2024-02-14T11:19:55;20.30;53.50
16404;DHT22;8311;50.158;8.642;2024-02-14T11:22:55;20.30;53.60
16404;DHT22;8311;50.158;8.642;2024-02-14T11:25:49;20.30;53.60
16404;DHT22;8311;50.158;8.642;2024-02-14T11:28:43;20.30;53.90
16404;DHT22;8311;50.158;8.642;2024-02-14T11:31:39;20.30;53.90
16404;DHT22;8311;50.158;8.642;2024-02-14T11:34:33;20.30;53.80
16404;DHT22;8311;50.158;8.642;2024-02-14T11:37:31;20.30;54.00
16404;DHT22;8311;50.158;8.642;2024-02-14T11:40:24;20.40;54.10
16404;DHT22;8311;50.158;8.642;2024-02-14T11:43:18;20.30;54.20
16404;DHT22;8311;50.158;8.642;2024-02-14T11:46:12;20.30;54.40
16404;DHT22;8311;50.158;8.642;2024-02-14T11:49:08;20.40;54.50
16404;DHT22;8311;50.158;8.642;2024-02-14T11:52:02;20.40;54.70
16404;DHT22;8311;50.158;8.642;2024-02-14T11:54:57;20.40;54.60
16404;DHT22;8311;50.158;8.642;2024-02-14T11:57:51;20.30;53.90
16404;DHT22;8311;50.158;8.642;2024-02-14T12:00:45;20.30;53.60
16404;DHT22;8311;50.158;8.642;2024-02-14T12:03:39;20.40;53.20
16404;DHT22;8311;50.158;8.642;2024-02-14T12:06:35;20.40;52.70
16404;DHT22;8311;50.158;8.642;2024-02-14T12:09:29;20.40;52.60
16404;DHT22;8311;50.158;8.642;2024-02-14T12:12:24;20.40;52.70
16404;DHT22;8311;50.158;8.642;2024-02-14T12:15:17;20.40;52.50
16404;DHT22;8311;50.158;8.642;2024-02-14T12:18:10;20.40;52.40
16404;DHT22;8311;50.158;8.642;2024-02-14T12:21:04;20.30;52.40
16404;DHT22;8311;50.158;8.642;2024-02-14T12:24:01;20.40;52.30
16404;DHT22;8311;50.158;8.642;2024-02-14T12:26:56;20.30;52.30
16404;DHT22;8311;50.158;8.642;2024-02-14T12:29:51;20.40;52.30
16404;DHT22;8311;50.158;8.642;2024-02-14T12:32:45;20.40;52.30
16404;DHT22;8311;50.158;8.642;2024-02-14T12:35:42;20.40;52.20
16404;DHT22;8311;50.158;8.642;2024-02-14T12:38:36;20.40;52.10
16404;DHT22;8311;50.158;8.642;2024-02-14T12:41:32;20.40;52.80
16404;DHT22;8311;50.158;8.642;2024-02-14T12:44:27;20.40;52.70
16404;DHT22;8311;50.158;8.642;2024-02-14T12:47:20;20.40;52.10
16404;DHT22;8311;50.158;8.642;2024-02-14T12:50:15;20.40;52.00
16404;DHT22;8311;50.158;8.642;2024-02-14T12:53:09;20.40;52.00
16404;DHT22;8311;50.158;8.642;2024-02-14T12:56:04;20.40;52.00
16404;DHT22;8311;50.158;8.642;2024-02-14T12:58:59;20.40;52.00
16404;DHT22;8311;50.158;8.642;2024-02-14T13:01:53;20.40;52.00
16404;DHT22;8311;50.158;8.642;2024-02-14T13:04:46;20.40;52.00
16404;DHT22;8311;50.158;8.642;2024-02-14T13:07:42;20.40;52.20
16404;DHT22;8311;50.158;8.642;2024-02-14T13:10:35;20.40;54.00
16404;DHT22;8311;50.158;8.642;2024-02-14T13:13:29;20.40;54.50
16404;DHT22;8311;50.158;8.642;2024-02-14T13:16:25;20.40;54.70
16404;DHT22;8311;50.158;8.642;2024-02-14T13:19:18;20.40;54.80
16404;DHT22;8311;50.158;8.642;2024-02-14T13:22:12;20.40;54.80
16404;DHT22;8311;50.158;8.642;2024-02-14T13:25:07;20.40;55.10
16404;DHT22;8311;50.158;8.642;2024-02-14T13:28:00;20.40;55.30
16404;DHT22;8311;50.158;8.642;2024-02-14T13:30:54;20.40;55.30
16404;DHT22;8311;50.158;8.642;2024-02-14T13:33:49;20.40;56.20
16404;DHT22;8311;50.158;8.642;2024-02-14T13:36:44;20.40;55.60
16404;DHT22;8311;50.158;8.642;2024-02-14T13:39:37;20.40;55.60
16404;DHT22;8311;50.158;8.642;2024-02-14T13:42:30;20.40;55.60
16404;DHT22;8311;50.158;8.642;2024-02-14T13:45:23;20.40;55.90
16404;DHT22;8311;50.158;8.642;2024-02-14T13:48:19;20.40;56.00
16404;DHT22;8311;50.158;8.642;2024-02-14T13:51:13;20.40;56.00
16404;DHT22;8311;50.158;8.642;2024-02-14T13:54:07;20.40;56.20
16404;DHT22;8311;50.158;8.642;2024-02-14T13:57:02;20.40;56.10
16404;DHT22;8311;50.158;8.642;2024-02-14T13:59:55;20.40;56.20
16404;DHT22;8311;50.158;8.642;2024-02-14T14:02:48;20.40;56.10
16404;DHT22;8311;50.158;8.642;2024-02-14T14:05:41;20.40;56.30
16404;DHT22;8311;50.158;8.642;2024-02-14T14:08:36;20.40;56.70
16404;DHT22;8311;50.158;8.642;2024-02-14T14:11:29;20.40;56.50
16404;DHT22;8311;50.158;8.642;2024-02-14T14:14:23;20.50;56.70
16404;DHT22;8311;50.158;8.642;2024-02-14T14:17:18;20.40;56.70
16404;DHT22;8311;50.158;8.642;2024-02-14T14:20:12;20.50;56.90
16404;DHT22;8311;50.158;8.642;2024-02-14T14:23:07;20.50;56.70
16404;DHT22;8311;50.158;8.642;2024-02-14T14:26:02;20.40;56.90
16404;DHT22;8311;50.158;8.642;2024-02-14T14:28:58;20.50;57.10
16404;DHT22;8311;50.158;8.642;2024-02-14T14:31:52;20.50;57.10
16404;DHT22;8311;50.158;8.642;2024-02-14T14:34:45;20.50;57.20
16404;DHT22;8311;50.158;8.642;2024-02-14T14:37:38;20.50;57.30
16404;DHT22;8311;50.158;8.642;2024-02-14T14:40:31;20.50;57.30
16404;DHT22;8311;50.158;8.642;2024-02-14T14:43:26;20.50;57.30
16404;DHT22;8311;50.158;8.642;2024-02-14T14:46:19;20.50;57.50
16404;DHT22;8311;50.158;8.642;2024-02-14T14:49:12;20.50;58.10
16404;DHT22;8311;50.158;8.642;2024-02-14T14:52:05;20.50;54.10
16404;DHT22;8311;50.158;8.642;2024-02-14T14:54:59;20.50;53.60
16404;DHT22;8311;50.158;8.642;2024-02-14T14:57:52;20.40;53.30
16404;DHT22;8311;50.158;8.642;2024-02-14T15:00:53;20.40;53.10
16404;DHT22;8311;50.158;8.642;2024-02-14T15:03:46;20.40;52.90
16404;DHT22;8311;50.158;8.642;2024-02-14T15:06:39;20.40;52.90
16404;DHT22;8311;50.158;8.642;2024-02-14T15:09:33;20.40;52.80
16404;DHT22;8311;50.158;8.642;2024-02-14T15:12:29;20.40;52.70
16404;DHT22;8311;50.158;8.642;2024-02-14T15:15:22;20.40;52.70
16404;DHT22;8311;50.158;8.642;2024-02-14T15:18:19;20.40;52.70
16404;DHT22;8311;50.158;8.642;2024-02-14T15:21:12;20.40;52.70
16404;DHT22;8311;50.158;8.642;2024-02-14T15:24:06;20.40;52.60
16404;DHT22;8311;50.158;8.642;2024-02-14T15:27:00;20.40;52.50
16404;DHT22;8311;50.158;8.642;2024-02-14T15:29:54;20.40;52.50
16404;DHT22;8311;50.158;8.642;2024-02-14T15:33:05;20.40;52.50
16404;DHT22;8311;50.158;8.642;2024-02-14T15:36:18;20.40;52.40
16404;DHT22;8311;50.158;8.642;2024-02-14T15:39:12;20.40;53.00
16404;DHT22;8311;50.158;8.642;2024-02-14T15:42:05;20.40;52.30
16404;DHT22;8311;50.158;8.642;2024-02-14T15:45:03;20.40;52.30
16404;DHT22;8311;50.158;8.642;2024-02-14T15:47:58;20.40;52.30
16404;DHT22;8311;50.158;8.642;2024-02-14T15:50:53;20.40;52.30
16404;DHT22;8311;50.158;8.642;2024-02-14T15:53:47;20.30;52.20
16404;DHT22;8311;50.158;8.642;2024-02-14T15:56:42;20.30;52.20
16404;DHT22;8311;50.158;8.642;2024-02-14T15:59:35;20.30;52.20
16404;DHT22;8311;50.158;8.642;2024-02-14T16:02:30;20.30;52.20
16404;DHT22;8311;50.158;8.642;2024-02-14T16:05:23;20.30;52.20
16404;DHT22;8311;50.158;8.642;2024-02-14T16:08:17;20.30;52.20
16404;DHT22;8311;50.158;8.642;2024-02-14T16:11:11;20.30;52.20
16404;DHT22;8311;50.158;8.642;2024-02-14T16:14:06;20.30;52.10
16404;DHT22;8311;50.158;8.642;2024-02-14T16:16:59;20.30;52.10
16404;DHT22;8311;50.158;8.642;2024-02-14T16:19:52;20.30;52.10
16404;DHT22;8311;50.158;8.642;2024-02-14T16:22:46;20.30;52.10
16404;DHT22;8311;50.158;8.642;2024-02-14T16:25:42;20.40;52.20
16404;DHT22;8311;50.158;8.642;2024-02-14T16:28:37;20.30;52.20
16404;DHT22;8311;50.158;8.642;2024-02-14T16:31:31;20.30;52.30
16404;DHT22;8311;50.158;8.642;2024-02-14T16:34:24;20.30;52.40
16404;DHT22;8311;50.158;8.642;2024-02-14T16:37:17;20.30;52.40
16404;DHT22;8311;50.158;8.642;2024-02-14T16:40:12;20.30;52.50
16404;DHT22;8311;50.158;8.642;2024-02-14T16:43:06;20.30;52.50
16404;DHT22;8311;50.158;8.642;2024-02-14T16:46:03;20.30;52.50
16404;DHT22;8311;50.158;8.642;2024-02-14T16:48:57;20.30;52.60
16404;DHT22;8311;50.158;8.642;2024-02-14T16:51:50;20.30;52.80
16404;DHT22;8311;50.158;8.642;2024-02-14T16:54:43;20.30;53.50
16404;DHT22;8311;50.158;8.642;2024-02-14T16:57:36;20.30;54.50
16404;DHT22;8311;50.158;8.642;2024-02-14T17:00:30;20.30;55.00
16404;DHT22;8311;50.158;8.642;2024-02-14T17:03:26;20.30;55.90
16404;DHT22;8311;50.158;8.642;2024-02-14T17:06:20;20.30;56.40
16404;DHT22;8311;50.158;8.642;2024-02-14T17:09:13;20.30;56.30
16404;DHT22;8311;50.158;8.642;2024-02-14T17:12:08;20.30;55.90
16404;DHT22;8311;50.158;8.642;2024-02-14T17:15:01;20.30;55.80
16404;DHT22;8311;50.158;8.642;2024-02-14T17:17:57;20.30;55.60
16404;DHT22;8311;50.158;8.642;2024-02-14T17:20:51;20.30;55.60
16404;DHT22;8311;50.158;8.642;2024-02-14T17:23:46;20.30;55.50
16404;DHT22;8311;50.158;8.642;2024-02-14T17:26:39;20.30;55.30
16404;DHT22;8311;50.158;8.642;2024-02-14T17:29:33;20.30;55.30
16404;DHT22;8311;50.158;8.642;2024-02-14T17:32:26;20.30;55.40
16404;DHT22;8311;50.158;8.642;2024-02-14T17:35:30;20.30;55.50
16404;DHT22;8311;50.158;8.642;2024-02-14T17:38:26;20.30;55.50
16404;DHT22;8311;50.158;8.642;2024-02-14T17:41:19;20.30;55.40
16404;DHT22;8311;50.158;8.642;2024-02-14T17:44:13;20.40;55.40
16404;DHT22;8311;50.158;8.642;2024-02-14T17:47:06;20.30;55.30
16404;DHT22;8311;50.158;8.642;2024-02-14T17:49:59;20.30;55.30
16404;DHT22;8311;50.158;8.642;2024-02-14T17:52:53;20.30;55.20
16404;DHT22;8311;50.158;8.642;2024-02-14T17:55:49;20.40;55.60
16404;DHT22;8311;50.158;8.642;2024-02-14T17:58:42;20.30;55.50
16404;DHT22;8311;50.158;8.642;2024-02-14T18:01:36;20.30;55.50
16404;DHT22;8311;50.158;8.642;2024-02-14T18:04:29;20.30;55.90
16404;DHT22;8311;50.158;8.642;2024-02-14T18:07:23;20.30;56.30
16404;DHT22;8311;50.158;8.642;2024-02-14T18:10:17;20.30;56.50
16404;DHT22;8311;50.158;8.642;2024-02-14T18:13:12;20.30;56.70
16404;DHT22;8311;50.158;8.642;2024-02-14T18:16:05;20.30;57.00
16404;DHT22;8311;50.158;8.642;2024-02-14T18:19:00;20.30;57.00
16404;DHT22;8311;50.158;8.642;2024-02-14T18:21:54;20.30;56.20
16404;DHT22;8311;50.158;8.642;2024-02-14T18:24:49;20.30;56.00
16404;DHT22;8311;50.158;8.642;2024-02-14T18:27:42;20.30;57.00
16404;DHT22;8311;50.158;8.642;2024-02-14T18:30:37;20.30;57.00
16404;DHT22;8311;50.158;8.642;2024-02-14T18:33:30;20.40;57.30
16404;DHT22;8311;50.158;8.642;2024-02-14T18:36:26;20.40;57.30
16404;DHT22;8311;50.158;8.642;2024-02-14T18:39:19;20.40;56.30